sensor_id;sensor_type;location;lat;lon;timestamp;pressure;altitude;pressure_sealevel;temperature;humidity
28648;BME280;17137;51.494;-0.262;2022-08-01T00:00:19;49815.25;;;-145.72;69.21
28648;BME280;17137;51.494;-0.262;2022-08-01T00:00:50;49812.79;;;-145.72;69.32
28648;BME280;17137;51.494;-0.262;2022-08-01T00:01:50;49824.13;;;-145.72;69.26
28648;BME280;17137;51.494;-0.262;2022-08-01T00:02:21;49810.57;;;-145.72;69.10
28648;BME280;17137;51.494;-0.262;2022-08-01T00:02:51;49812.05;;;-145.72;68.91
28648;BME280;17137;51.494;-0.262;2022-08-01T00:03:22;49815.50;;;-145.72;68.69
28648;BME280;17137;51.494;-0.262;2022-08-01T00:03:52;49807.86;;;-145.72;68.60
28648;BME280;17137;51.494;-0.262;2022-08-01T00:04:22;49810.32;;;-145.72;68.87
28648;BME280;17137;51.494;-0.262;2022-08-01T00:04:54;49809.34;;;-145.72;68.82
28648;BME280;17137;51.494;-0.262;2022-08-01T00:05:25;49802.43;;;-145.72;68.39
28648;BME280;17137;51.494;-0.262;2022-08-01T00:05:55;49809.58;;;-145.72;68.37
28648;BME280;17137;51.494;-0.262;2022-08-01T00:06:26;49805.52;;;-145.72;68.25
28648;BME280;17137;51.494;-0.262;2022-08-01T00:06:57;49794.18;;;-145.72;68.12
28648;BME280;17137;51.494;-0.262;2022-08-01T00:07:27;49794.55;;;-145.72;67.83
28648;BME280;17137;51.494;-0.262;2022-08-01T00:07:58;49805.02;;;-145.72;67.56
28648;BME280;17137;51.494;-0.262;2022-08-01T00:08:29;49796.52;;;-145.72;67.28
28648;BME280;17137;51.494;-0.262;2022-08-01T00:08:59;49801.94;;;-145.72;67.31
28648;BME280;17137;51.494;-0.262;2022-08-01T00:09:30;49802.43;;;-145.72;67.47
28648;BME280;17137;51.494;-0.262;2022-08-01T00:10:00;49786.41;;;-145.72;67.17
28648;BME280;17137;51.494;-0.262;2022-08-01T00:10:31;49794.18;;;-145.72;67.08
28648;BME280;17137;51.494;-0.262;2022-08-01T00:11:01;49802.93;;;-145.72;67.01
28648;BME280;17137;51.494;-0.262;2022-08-01T00:11:32;49802.68;;;-145.72;67.27
28648;BME280;17137;51.494;-0.262;2022-08-01T00:12:03;49795.29;;;-145.72;67.48
28648;BME280;17137;51.494;-0.262;2022-08-01T00:12:34;49798.37;;;-145.72;67.16
28648;BME280;17137;51.494;-0.262;2022-08-01T00:13:04;49799.48;;;-145.72;67.00
28648;BME280;17137;51.494;-0.262;2022-08-01T00:13:34;49796.03;;;-145.72;67.01
28648;BME280;17137;51.494;-0.262;2022-08-01T00:14:05;49790.36;;;-145.72;66.87
28648;BME280;17137;51.494;-0.262;2022-08-01T00:14:35;49793.68;;;-145.72;66.79
28648;BME280;17137;51.494;-0.262;2022-08-01T00:15:08;49789.74;;;-145.72;67.17
28648;BME280;17137;51.494;-0.262;2022-08-01T00:15:39;49794.18;;;-145.72;67.17
28648;BME280;17137;51.494;-0.262;2022-08-01T00:16:09;49796.64;;;-145.72;67.30
28648;BME280;17137;51.494;-0.262;2022-08-01T00:16:40;49799.60;;;-145.72;67.60
28648;BME280;17137;51.494;-0.262;2022-08-01T00:17:10;49795.78;;;-145.72;67.52
28648;BME280;17137;51.494;-0.262;2022-08-01T00:17:42;49796.76;;;-145.72;67.25
28648;BME280;17137;51.494;-0.262;2022-08-01T00:18:12;49786.41;;;-145.72;67.03
28648;BME280;17137;51.494;-0.262;2022-08-01T00:18:42;49793.68;;;-145.72;67.05
28648;BME280;17137;51.494;-0.262;2022-08-01T00:19:13;49791.71;;;-145.72;67.29
28648;BME280;17137;51.494;-0.262;2022-08-01T00:19:44;49786.29;;;-145.72;67.27
28648;BME280;17137;51.494;-0.262;2022-08-01T00:20:14;49791.34;;;-145.72;67.27
28648;BME280;17137;51.494;-0.262;2022-08-01T00:20:45;49800.59;;;-145.72;67.18
28648;BME280;17137;51.494;-0.262;2022-08-01T00:21:16;49794.55;;;-145.72;67.39
28648;BME280;17137;51.494;-0.262;2022-08-01T00:21:46;49797.38;;;-145.72;67.29
28648;BME280;17137;51.494;-0.262;2022-08-01T00:22:17;49794.92;;;-145.72;67.61
28648;BME280;17137;51.494;-0.262;2022-08-01T00:22:47;49802.68;;;-145.72;67.85
28648;BME280;17137;51.494;-0.262;2022-08-01T00:23:23;49804.04;;;-145.72;67.90
28648;BME280;17137;51.494;-0.262;2022-08-01T00:23:53;49804.41;;;-145.72;67.51
28648;BME280;17137;51.494;-0.262;2022-08-01T00:24:24;49788.01;;;-145.72;67.28
28648;BME280;17137;51.494;-0.262;2022-08-01T00:24:54;49811.80;;;-145.72;67.50
28648;BME280;17137;51.494;-0.262;2022-08-01T00:25:25;49808.60;;;-145.72;67.84
28648;BME280;17137;51.494;-0.262;2022-08-01T00:25:56;49804.90;;;-145.72;68.00
28648;BME280;17137;51.494;-0.262;2022-08-01T00:26:27;49801.82;;;-145.72;68.10
28648;BME280;17137;51.494;-0.262;2022-08-01T00:26:57;49823.51;;;-145.72;68.37
28648;BME280;17137;51.494;-0.262;2022-08-01T00:27:27;49812.54;;;-145.72;68.23
28648;BME280;17137;51.494;-0.262;2022-08-01T00:27:58;49807.61;;;-145.72;68.27
28648;BME280;17137;51.494;-0.262;2022-08-01T00:28:29;49819.20;;;-145.72;68.49
28648;BME280;17137;51.494;-0.262;2022-08-01T00:29:00;49818.58;;;-145.72;68.67
28648;BME280;17137;51.494;-0.262;2022-08-01T00:29:30;49821.91;;;-145.72;68.69
28648;BME280;17137;51.494;-0.262;2022-08-01T00:30:01;49817.22;;;-145.72;68.94
28648;BME280;17137;51.494;-0.262;2022-08-01T00:30:31;49819.57;;;-145.72;68.77
28648;BME280;17137;51.494;-0.262;2022-08-01T00:31:02;49827.21;;;-145.72;69.23
28648;BME280;17137;51.494;-0.262;2022-08-01T00:31:33;49821.79;;;-145.72;69.19
28648;BME280;17137;51.494;-0.262;2022-08-01T00:32:04;49825.11;;;-145.72;69.25
28648;BME280;17137;51.494;-0.262;2022-08-01T00:32:35;49826.10;;;-145.72;69.20
28648;BME280;17137;51.494;-0.262;2022-08-01T00:33:05;49824.13;;;-145.72;68.82
28648;BME280;17137;51.494;-0.262;2022-08-01T00:33:36;49817.96;;;-145.72;68.78
28648;BME280;17137;51.494;-0.262;2022-08-01T00:34:07;49827.58;;;-145.72;68.70
28648;BME280;17137;51.494;-0.262;2022-08-01T00:34:37;49826.72;;;-145.72;68.64
28648;BME280;17137;51.494;-0.262;2022-08-01T00:35:08;49824.74;;;-145.72;68.78
28648;BME280;17137;51.494;-0.262;2022-08-01T00:35:38;49832.75;;;-145.72;68.98
28648;BME280;17137;51.494;-0.262;2022-08-01T00:36:09;49817.96;;;-145.72;69.05
28648;BME280;17137;51.494;-0.262;2022-08-01T00:36:39;49820.80;;;-145.72;68.95
28648;BME280;17137;51.494;-0.262;2022-08-01T00:37:11;49820.18;;;-145.72;69.18
28648;BME280;17137;51.494;-0.262;2022-08-01T00:37:41;49828.32;;;-145.72;69.06
28648;BME280;17137;51.494;-0.262;2022-08-01T00:38:11;49822.28;;;-145.72;68.71
28648;BME280;17137;51.494;-0.262;2022-08-01T00:38:42;49817.22;;;-145.72;68.80
28648;BME280;17137;51.494;-0.262;2022-08-01T00:39:12;49825.11;;;-145.72;68.38
28648;BME280;17137;51.494;-0.262;2022-08-01T00:39:43;49823.88;;;-145.72;68.11
28648;BME280;17137;51.494;-0.262;2022-08-01T00:40:14;49823.51;;;-145.72;67.81
28648;BME280;17137;51.494;-0.262;2022-08-01T00:40:44;49817.96;;;-145.72;67.70
28648;BME280;17137;51.494;-0.262;2022-08-01T00:41:14;49817.10;;;-145.72;67.92
28648;BME280;17137;51.494;-0.262;2022-08-01T00:41:45;49817.10;;;-145.72;68.08
28648;BME280;17137;51.494;-0.262;2022-08-01T00:42:15;49813.65;;;-145.72;67.88
28648;BME280;17137;51.494;-0.262;2022-08-01T00:42:46;49817.47;;;-145.72;67.86
28648;BME280;17137;51.494;-0.262;2022-08-01T00:43:17;49816.61;;;-145.72;68.22
28648;BME280;17137;51.494;-0.262;2022-08-01T00:43:47;49831.77;;;-145.72;68.53
28648;BME280;17137;51.494;-0.262;2022-08-01T00:44:18;49824.37;;;-145.72;68.42
28648;BME280;17137;51.494;-0.262;2022-08-01T00:44:48;49826.96;;;-145.72;68.77
28648;BME280;17137;51.494;-0.262;2022-08-01T00:45:19;49831.28;;;-145.72;68.57
28648;BME280;17137;51.494;-0.262;2022-08-01T00:45:49;49831.77;;;-145.72;68.65
28648;BME280;17137;51.494;-0.262;2022-08-01T00:46:20;49833.12;;;-145.72;68.68
28648;BME280;17137;51.494;-0.262;2022-08-01T00:46:50;49826.72;;;-145.72;68.60
28648;BME280;17137;51.494;-0.262;2022-08-01T00:47:20;49824.25;;;-145.72;68.75
28648;BME280;17137;51.494;-0.262;2022-08-01T00:47:51;49827.58;;;-145.72;68.90
28648;BME280;17137;51.494;-0.262;2022-08-01T00:48:50;49825.98;;;-145.72;68.82
28648;BME280;17137;51.494;-0.262;2022-08-01T00:49:21;49826.10;;;-145.72;68.87
28648;BME280;17137;51.494;-0.262;2022-08-01T00:49:57;49826.35;;;-145.72;68.69
28648;BME280;17137;51.494;-0.262;2022-08-01T00:50:33;49825.36;;;-145.72;68.56
28648;BME280;17137;51.494;-0.262;2022-08-01T00:51:09;49821.54;;;-145.72;67.96
28648;BME280;17137;51.494;-0.262;2022-08-01T00:51:45;49814.39;;;-145.72;67.43
28648;BME280;17137;51.494;-0.262;2022-08-01T00:52:37;49814.14;;;-145.72;67.51
28648;BME280;17137;51.494;-0.262;2022-08-01T00:53:10;49816.61;;;-145.72;67.55
28648;BME280;17137;51.494;-0.262;2022-08-01T00:53:41;49809.09;;;-145.72;67.54
28648;BME280;17137;51.494;-0.262;2022-08-01T00:54:11;49809.34;;;-145.72;67.33
28648;BME280;17137;51.494;-0.262;2022-08-01T00:54:43;49816.49;;;-145.72;67.37
28648;BME280;17137;51.494;-0.262;2022-08-01T00:55:14;49811.80;;;-145.72;67.32
28648;BME280;17137;51.494;-0.262;2022-08-01T00:55:46;49814.14;;;-145.72;67.37
28648;BME280;17137;51.494;-0.262;2022-08-01T00:57:10;49818.09;;;-145.72;67.95
28648;BME280;17137;51.494;-0.262;2022-08-01T00:57:47;49822.15;;;-145.72;68.30
28648;BME280;17137;51.494;-0.262;2022-08-01T00:58:18;49822.15;;;-145.72;67.98
28648;BME280;17137;51.494;-0.262;2022-08-01T00:58:50;49820.80;;;-145.72;67.89
28648;BME280;17137;51.494;-0.262;2022-08-01T00:59:22;49827.70;;;-145.72;68.01
28648;BME280;17137;51.494;-0.262;2022-08-01T00:59:58;49817.10;;;-145.72;68.09
28648;BME280;17137;51.494;-0.262;2022-08-01T01:00:29;49819.57;;;-145.72;68.10
28648;BME280;17137;51.494;-0.262;2022-08-01T01:01:00;49810.57;;;-145.72;67.86
28648;BME280;17137;51.494;-0.262;2022-08-01T01:01:31;49824.87;;;-145.72;67.67
28648;BME280;17137;51.494;-0.262;2022-08-01T01:02:02;49824.00;;;-145.72;67.80
28648;BME280;17137;51.494;-0.262;2022-08-01T01:02:33;49824.99;;;-145.72;67.16
28648;BME280;17137;51.494;-0.262;2022-08-01T01:03:09;49831.52;;;-145.72;66.86
28648;BME280;17137;51.494;-0.262;2022-08-01T01:03:44;49826.96;;;-145.72;66.72
28648;BME280;17137;51.494;-0.262;2022-08-01T01:04:16;49819.81;;;-145.72;66.31
28648;BME280;17137;51.494;-0.262;2022-08-01T01:04:47;49834.85;;;-145.72;66.46
28648;BME280;17137;51.494;-0.262;2022-08-01T01:05:22;49831.40;;;-145.72;66.82
28648;BME280;17137;51.494;-0.262;2022-08-01T01:06:01;49830.04;;;-145.72;66.90
28648;BME280;17137;51.494;-0.262;2022-08-01T01:06:42;49830.91;;;-145.72;66.39
28648;BME280;17137;51.494;-0.262;2022-08-01T01:07:19;49835.34;;;-145.72;66.37
28648;BME280;17137;51.494;-0.262;2022-08-01T01:08:02;49835.10;;;-145.72;65.89
28648;BME280;17137;51.494;-0.262;2022-08-01T01:08:37;49836.08;;;-145.72;65.78
28648;BME280;17137;51.494;-0.262;2022-08-01T01:09:19;49833.12;;;-145.72;65.68
28648;BME280;17137;51.494;-0.262;2022-08-01T01:09:56;49835.59;;;-145.72;66.01
28648;BME280;17137;51.494;-0.262;2022-08-01T01:10:31;49840.27;;;-145.72;66.01
28648;BME280;17137;51.494;-0.262;2022-08-01T01:11:10;49835.10;;;-145.72;65.90
28648;BME280;17137;51.494;-0.262;2022-08-01T01:11:57;49823.76;;;-145.72;66.20
28648;BME280;17137;51.494;-0.262;2022-08-01T01:12:31;49844.71;;;-145.72;66.18
28648;BME280;17137;51.494;-0.262;2022-08-01T01:13:06;49823.63;;;-145.72;66.21
28648;BME280;17137;51.494;-0.262;2022-08-01T01:13:49;49818.46;;;-145.72;65.79
28648;BME280;17137;51.494;-0.262;2022-08-01T01:14:30;49824.99;;;-145.72;65.85
28648;BME280;17137;51.494;-0.262;2022-08-01T01:15:06;49822.77;;;-145.72;65.52
28648;BME280;17137;51.494;-0.262;2022-08-01T01:15:43;49823.26;;;-145.72;65.66
28648;BME280;17137;51.494;-0.262;2022-08-01T01:16:18;49818.21;;;-145.72;65.45
28648;BME280;17137;51.494;-0.262;2022-08-01T01:16:51;49826.59;;;-145.72;65.48
28648;BME280;17137;51.494;-0.262;2022-08-01T01:17:27;49814.51;;;-145.72;65.01
28648;BME280;17137;51.494;-0.262;2022-08-01T01:18:03;49812.66;;;-145.72;64.73
28648;BME280;17137;51.494;-0.262;2022-08-01T01:18:38;49825.24;;;-145.72;64.72
28648;BME280;17137;51.494;-0.262;2022-08-01T01:19:16;49816.36;;;-145.72;64.77
28648;BME280;17137;51.494;-0.262;2022-08-01T01:19:50;49820.68;;;-145.72;64.27
28648;BME280;17137;51.494;-0.262;2022-08-01T01:20:26;49809.83;;;-145.72;64.37
28648;BME280;17137;51.494;-0.262;2022-08-01T01:21:01;49816.61;;;-145.72;63.81
28648;BME280;17137;51.494;-0.262;2022-08-01T01:21:46;49821.29;;;-145.72;63.51
28648;BME280;17137;51.494;-0.262;2022-08-01T01:22:27;49812.79;;;-145.72;63.40
28648;BME280;17137;51.494;-0.262;2022-08-01T01:23:19;49807.86;;;-145.72;62.87
28648;BME280;17137;51.494;-0.262;2022-08-01T01:24:04;49819.44;;;-145.72;62.51
28648;BME280;17137;51.494;-0.262;2022-08-01T01:24:49;49817.72;;;-145.72;62.96
28648;BME280;17137;51.494;-0.262;2022-08-01T01:25:49;49814.76;;;-145.72;61.82
28648;BME280;17137;51.494;-0.262;2022-08-01T01:26:36;49812.05;;;-145.72;60.97
28648;BME280;17137;51.494;-0.262;2022-08-01T01:27:18;49806.99;;;-145.72;60.77
28648;BME280;17137;51.494;-0.262;2022-08-01T01:28:04;49807.24;;;-145.72;60.23
28648;BME280;17137;51.494;-0.262;2022-08-01T01:28:49;49794.42;;;-145.72;59.79
28648;BME280;17137;51.494;-0.262;2022-08-01T01:29:25;49811.80;;;-145.72;60.03
28648;BME280;17137;51.494;-0.262;2022-08-01T01:29:58;49808.84;;;-145.72;59.84
28648;BME280;17137;51.494;-0.262;2022-08-01T01:30:37;49798.12;;;-145.72;59.50
28648;BME280;17137;51.494;-0.262;2022-08-01T01:31:10;49813.77;;;-145.72;59.60
28648;BME280;17137;51.494;-0.262;2022-08-01T01:31:46;49807.86;;;-145.72;59.95
28648;BME280;17137;51.494;-0.262;2022-08-01T01:32:22;49826.10;;;-145.72;60.46
28648;BME280;17137;51.494;-0.262;2022-08-01T01:33:02;49808.23;;;-145.72;60.31
28648;BME280;17137;51.494;-0.262;2022-08-01T01:33:36;49811.31;;;-145.72;60.36
28648;BME280;17137;51.494;-0.262;2022-08-01T01:34:09;49807.61;;;-145.72;60.59
28648;BME280;17137;51.494;-0.262;2022-08-01T01:34:44;49805.15;;;-145.72;60.70
28648;BME280;17137;51.494;-0.262;2022-08-01T01:35:21;49811.43;;;-145.72;62.57
28648;BME280;17137;51.494;-0.262;2022-08-01T01:35:59;49816.49;;;-145.72;62.94
28648;BME280;17137;51.494;-0.262;2022-08-01T01:36:36;49820.92;;;-145.72;63.87
28648;BME280;17137;51.494;-0.262;2022-08-01T01:37:12;49815.75;;;-145.72;64.32
28648;BME280;17137;51.494;-0.262;2022-08-01T01:37:46;49815.75;;;-145.72;64.86
28648;BME280;17137;51.494;-0.262;2022-08-01T01:38:21;49822.28;;;-145.72;65.36
28648;BME280;17137;51.494;-0.262;2022-08-01T01:38:53;49823.39;;;-145.72;65.96
28648;BME280;17137;51.494;-0.262;2022-08-01T01:39:26;49834.97;;;-145.72;66.73
28648;BME280;17137;51.494;-0.262;2022-08-01T01:40:05;49817.72;;;-145.72;66.39
28648;BME280;17137;51.494;-0.262;2022-08-01T01:40:38;49824.99;;;-145.72;67.24
28648;BME280;17137;51.494;-0.262;2022-08-01T01:41:11;49837.32;;;-145.72;68.11
28648;BME280;17137;51.494;-0.262;2022-08-01T01:41:43;49824.37;;;-145.72;67.52
28648;BME280;17137;51.494;-0.262;2022-08-01T01:42:17;49819.94;;;-145.72;67.05
28648;BME280;17137;51.494;-0.262;2022-08-01T01:42:49;49826.22;;;-145.72;67.00
28648;BME280;17137;51.494;-0.262;2022-08-01T01:43:27;49818.83;;;-145.72;66.97
28648;BME280;17137;51.494;-0.262;2022-08-01T01:44:00;49837.32;;;-145.72;68.12
28648;BME280;17137;51.494;-0.262;2022-08-01T01:44:32;49833.12;;;-145.72;68.30
28648;BME280;17137;51.494;-0.262;2022-08-01T01:45:05;49828.93;;;-145.72;68.17
28648;BME280;17137;51.494;-0.262;2022-08-01T01:45:37;49818.58;;;-145.72;67.60
28648;BME280;17137;51.494;-0.262;2022-08-01T01:46:11;49812.91;;;-145.72;67.19
28648;BME280;17137;51.494;-0.262;2022-08-01T01:46:43;49810.57;;;-145.72;67.00
28648;BME280;17137;51.494;-0.262;2022-08-01T01:47:14;49814.27;;;-145.72;66.90
28648;BME280;17137;51.494;-0.262;2022-08-01T01:47:47;49807.24;;;-145.72;66.79
28648;BME280;17137;51.494;-0.262;2022-08-01T01:48:20;49818.83;;;-145.72;67.02
28648;BME280;17137;51.494;-0.262;2022-08-01T01:48:52;49823.39;;;-145.72;66.81
28648;BME280;17137;51.494;-0.262;2022-08-01T01:49:54;49825.61;;;-145.72;67.27
28648;BME280;17137;51.494;-0.262;2022-08-01T01:50:27;49835.34;;;-145.72;68.68
28648;BME280;17137;51.494;-0.262;2022-08-01T01:50:59;49829.06;;;-145.72;68.57
28648;BME280;17137;51.494;-0.262;2022-08-01T01:51:30;49823.76;;;-145.72;68.29
28648;BME280;17137;51.494;-0.262;2022-08-01T01:52:02;49827.45;;;-145.72;68.43
28648;BME280;17137;51.494;-0.262;2022-08-01T01:52:34;49833.74;;;-145.72;68.70
28648;BME280;17137;51.494;-0.262;2022-08-01T01:53:06;49831.28;;;-145.72;68.68
28648;BME280;17137;51.494;-0.262;2022-08-01T01:53:38;49827.09;;;-145.72;68.46
28648;BME280;17137;51.494;-0.262;2022-08-01T01:54:10;49826.72;;;-145.72;68.33
28648;BME280;17137;51.494;-0.262;2022-08-01T01:54:45;49821.66;;;-145.72;68.23
28648;BME280;17137;51.494;-0.262;2022-08-01T01:55:28;49826.22;;;-145.72;67.77
28648;BME280;17137;51.494;-0.262;2022-08-01T01:56:01;49823.88;;;-145.72;67.43
28648;BME280;17137;51.494;-0.262;2022-08-01T01:56:32;49811.68;;;-145.72;67.24
28648;BME280;17137;51.494;-0.262;2022-08-01T01:57:09;49823.39;;;-145.72;67.75
28648;BME280;17137;51.494;-0.262;2022-08-01T01:57:42;49819.94;;;-145.72;67.76
28648;BME280;17137;51.494;-0.262;2022-08-01T01:58:20;49826.10;;;-145.72;67.65
28648;BME280;17137;51.494;-0.262;2022-08-01T01:58:54;49821.42;;;-145.72;67.86
28648;BME280;17137;51.494;-0.262;2022-08-01T01:59:28;49829.80;;;-145.72;68.09
28648;BME280;17137;51.494;-0.262;2022-08-01T02:00:00;49833.74;;;-145.72;67.95
28648;BME280;17137;51.494;-0.262;2022-08-01T02:00:32;49837.19;;;-145.72;67.85
28648;BME280;17137;51.494;-0.262;2022-08-01T02:01:03;49815.75;;;-145.72;67.40
28648;BME280;17137;51.494;-0.262;2022-08-01T02:01:34;49816.85;;;-145.72;67.52
28648;BME280;17137;51.494;-0.262;2022-08-01T02:02:06;49825.24;;;-145.72;67.36
28648;BME280;17137;51.494;-0.262;2022-08-01T02:02:37;49814.88;;;-145.72;67.09
28648;BME280;17137;51.494;-0.262;2022-08-01T02:03:10;49817.59;;;-145.72;67.12
28648;BME280;17137;51.494;-0.262;2022-08-01T02:03:47;49819.57;;;-145.72;67.14
28648;BME280;17137;51.494;-0.262;2022-08-01T02:04:31;49816.73;;;-145.72;67.27
28648;BME280;17137;51.494;-0.262;2022-08-01T02:05:05;49834.23;;;-145.72;68.19
28648;BME280;17137;51.494;-0.262;2022-08-01T02:05:39;49835.59;;;-145.72;68.03
28648;BME280;17137;51.494;-0.262;2022-08-01T02:06:13;49819.69;;;-145.72;67.99
28648;BME280;17137;51.494;-0.262;2022-08-01T02:06:47;49819.20;;;-145.72;67.75
28648;BME280;17137;51.494;-0.262;2022-08-01T02:07:21;49824.25;;;-145.72;67.83
28648;BME280;17137;51.494;-0.262;2022-08-01T02:07:53;49827.45;;;-145.72;67.98
28648;BME280;17137;51.494;-0.262;2022-08-01T02:08:25;49821.17;;;-145.72;67.57
28648;BME280;17137;51.494;-0.262;2022-08-01T02:08:57;49826.22;;;-145.72;67.68
28648;BME280;17137;51.494;-0.262;2022-08-01T02:09:29;49822.89;;;-145.72;67.63
28648;BME280;17137;51.494;-0.262;2022-08-01T02:10:02;49814.39;;;-145.72;67.51
28648;BME280;17137;51.494;-0.262;2022-08-01T02:10:34;49813.40;;;-145.72;67.28
28648;BME280;17137;51.494;-0.262;2022-08-01T02:11:05;49822.89;;;-145.72;66.96
28648;BME280;17137;51.494;-0.262;2022-08-01T02:11:39;49822.03;;;-145.72;66.83
28648;BME280;17137;51.494;-0.262;2022-08-01T02:12:11;49811.68;;;-145.72;66.86
28648;BME280;17137;51.494;-0.262;2022-08-01T02:12:43;49824.13;;;-145.72;66.58
28648;BME280;17137;51.494;-0.262;2022-08-01T02:13:14;49821.91;;;-145.72;67.35
28648;BME280;17137;51.494;-0.262;2022-08-01T02:13:58;49823.51;;;-145.72;67.53
28648;BME280;17137;51.494;-0.262;2022-08-01T02:14:29;49829.55;;;-145.72;67.85
28648;BME280;17137;51.494;-0.262;2022-08-01T02:15:00;49824.74;;;-145.72;67.61
28648;BME280;17137;51.494;-0.262;2022-08-01T02:15:33;49815.01;;;-145.72;67.29
28648;BME280;17137;51.494;-0.262;2022-08-01T02:16:05;49820.31;;;-145.72;67.21
28648;BME280;17137;51.494;-0.262;2022-08-01T02:16:37;49824.87;;;-145.72;67.41
28648;BME280;17137;51.494;-0.262;2022-08-01T02:17:11;49830.41;;;-145.72;67.45
28648;BME280;17137;51.494;-0.262;2022-08-01T02:17:44;49824.87;;;-145.72;67.60
28648;BME280;17137;51.494;-0.262;2022-08-01T02:18:15;49834.11;;;-145.72;68.06
28648;BME280;17137;51.494;-0.262;2022-08-01T02:18:45;49832.63;;;-145.72;68.21
28648;BME280;17137;51.494;-0.262;2022-08-01T02:19:27;49828.32;;;-145.72;68.02
28648;BME280;17137;51.494;-0.262;2022-08-01T02:19:58;49822.65;;;-145.72;67.48
28648;BME280;17137;51.494;-0.262;2022-08-01T02:20:29;49820.43;;;-145.72;67.36
28648;BME280;17137;51.494;-0.262;2022-08-01T02:21:03;49829.43;;;-145.72;67.93
28648;BME280;17137;51.494;-0.262;2022-08-01T02:21:41;49841.63;;;-145.72;68.43
28648;BME280;17137;51.494;-0.262;2022-08-01T02:22:19;49843.23;;;-145.72;68.53
28648;BME280;17137;51.494;-0.262;2022-08-01T02:22:55;49839.16;;;-145.72;68.80
28648;BME280;17137;51.494;-0.262;2022-08-01T02:23:30;49836.58;;;-145.72;68.81
28648;BME280;17137;51.494;-0.262;2022-08-01T02:24:06;49846.07;;;-145.72;68.85
28648;BME280;17137;51.494;-0.262;2022-08-01T02:24:43;49850.50;;;-145.72;69.32
28648;BME280;17137;51.494;-0.262;2022-08-01T02:25:20;49838.42;;;-145.72;69.08
28648;BME280;17137;51.494;-0.262;2022-08-01T02:25:52;49846.93;;;-145.72;69.70
28648;BME280;17137;51.494;-0.262;2022-08-01T02:26:24;49847.42;;;-145.72;69.65
28648;BME280;17137;51.494;-0.262;2022-08-01T02:27:00;49849.39;;;-145.72;69.60
28648;BME280;17137;51.494;-0.262;2022-08-01T02:27:39;49852.48;;;-145.72;69.81
28648;BME280;17137;51.494;-0.262;2022-08-01T02:28:15;49841.14;;;-145.72;69.46
28648;BME280;17137;51.494;-0.262;2022-08-01T02:28:50;49844.71;;;-145.72;69.35
28648;BME280;17137;51.494;-0.262;2022-08-01T02:29:27;49863.94;;;-145.72;70.10
28648;BME280;17137;51.494;-0.262;2022-08-01T02:30:04;49845.82;;;-145.72;70.04
28648;BME280;17137;51.494;-0.262;2022-08-01T02:30:36;49849.15;;;-145.72;70.05
28648;BME280;17137;51.494;-0.262;2022-08-01T02:31:13;49855.93;;;-145.72;70.52
28648;BME280;17137;51.494;-0.262;2022-08-01T02:31:45;49856.91;;;-145.72;70.79
28648;BME280;17137;51.494;-0.262;2022-08-01T02:32:23;49858.52;;;-145.72;70.69
28648;BME280;17137;51.494;-0.262;2022-08-01T02:32:59;49847.30;;;-145.72;71.21
28648;BME280;17137;51.494;-0.262;2022-08-01T02:33:36;49851.86;;;-145.72;70.33
28648;BME280;17137;51.494;-0.262;2022-08-01T02:34:11;49850.75;;;-145.72;70.07
28648;BME280;17137;51.494;-0.262;2022-08-01T02:34:46;49842.98;;;-145.72;69.85
28648;BME280;17137;51.494;-0.262;2022-08-01T02:35:25;49840.40;;;-145.72;69.56
28648;BME280;17137;51.494;-0.262;2022-08-01T02:35:59;49834.97;;;-145.72;69.67
28648;BME280;17137;51.494;-0.262;2022-08-01T02:36:34;49843.72;;;-145.72;69.23
28648;BME280;17137;51.494;-0.262;2022-08-01T02:37:05;49839.66;;;-145.72;69.00
28648;BME280;17137;51.494;-0.262;2022-08-01T02:37:38;49840.40;;;-145.72;68.92
28648;BME280;17137;51.494;-0.262;2022-08-01T02:38:10;49836.08;;;-145.72;68.62
28648;BME280;17137;51.494;-0.262;2022-08-01T02:38:44;49823.76;;;-145.72;68.77
28648;BME280;17137;51.494;-0.262;2022-08-01T02:39:18;49836.82;;;-145.72;68.98
28648;BME280;17137;51.494;-0.262;2022-08-01T02:39:52;49833.99;;;-145.72;68.94
28648;BME280;17137;51.494;-0.262;2022-08-01T02:40:27;49838.18;;;-145.72;69.52
28648;BME280;17137;51.494;-0.262;2022-08-01T02:41:02;49838.18;;;-145.72;69.38
28648;BME280;17137;51.494;-0.262;2022-08-01T02:41:38;49846.19;;;-145.72;69.24
28648;BME280;17137;51.494;-0.262;2022-08-01T02:42:11;49849.76;;;-145.72;69.02
28648;BME280;17137;51.494;-0.262;2022-08-01T02:42:48;49841.01;;;-145.72;69.01
28648;BME280;17137;51.494;-0.262;2022-08-01T02:43:23;49838.55;;;-145.72;69.05
28648;BME280;17137;51.494;-0.262;2022-08-01T02:43:59;49854.45;;;-145.72;69.96
28648;BME280;17137;51.494;-0.262;2022-08-01T02:44:37;49845.33;;;-145.72;69.56
28648;BME280;17137;51.494;-0.262;2022-08-01T02:45:09;49846.56;;;-145.72;69.39
28648;BME280;17137;51.494;-0.262;2022-08-01T02:45:45;49834.85;;;-145.72;69.12
28648;BME280;17137;51.494;-0.262;2022-08-01T02:46:25;49835.22;;;-145.72;68.89
28648;BME280;17137;51.494;-0.262;2022-08-01T02:47:00;49843.72;;;-145.72;68.75
28648;BME280;17137;51.494;-0.262;2022-08-01T02:47:32;49843.85;;;-145.72;68.92
28648;BME280;17137;51.494;-0.262;2022-08-01T02:48:07;49844.34;;;-145.72;68.36
28648;BME280;17137;51.494;-0.262;2022-08-01T02:48:40;49844.34;;;-145.72;68.56
28648;BME280;17137;51.494;-0.262;2022-08-01T02:49:12;49835.10;;;-145.72;68.64
28648;BME280;17137;51.494;-0.262;2022-08-01T02:49:46;49850.87;;;-145.72;69.17
28648;BME280;17137;51.494;-0.262;2022-08-01T02:50:18;49851.86;;;-145.72;69.08
28648;BME280;17137;51.494;-0.262;2022-08-01T02:50:51;49836.45;;;-145.72;68.69
28648;BME280;17137;51.494;-0.262;2022-08-01T02:51:23;49843.35;;;-145.72;69.24
28648;BME280;17137;51.494;-0.262;2022-08-01T02:51:55;49836.70;;;-145.72;68.86
28648;BME280;17137;51.494;-0.262;2022-08-01T02:52:27;49843.72;;;-145.72;68.80
28648;BME280;17137;51.494;-0.262;2022-08-01T02:53:01;49836.33;;;-145.72;68.78
28648;BME280;17137;51.494;-0.262;2022-08-01T02:53:34;49838.42;;;-145.72;68.94
28648;BME280;17137;51.494;-0.262;2022-08-01T02:54:08;49842.25;;;-145.72;68.88